Time;durP1;ratioP1;P1;durP2;ratioP2;P2;SDS_P1;SDS_P2;PMS_P1;PMS_P2;Temp;Humidity;BMP_temperature;BMP_pressure;BME280_temperature;BME280_humidity;BME280_pressure;Samples;Min_cycle;Max_cycle;Signal;HPM_P1;HPM_P2
2023/05/14 00:01:06;;;;;;;6.72;3.35;;;11.60;99.90;;;;;;5023386;28;20041;-88
2023/05/14 00:03:32;;;;;;;6.68;4.32;;;11.70;99.90;;;;;;5021159;28;20096;-87
2023/05/14 00:05:58;;;;;;;10.20;4.03;;;11.60;99.90;;;;;;5020148;28;20100;-82
2023/05/14 00:08:23;;;;;;;7.50;3.88;;;11.70;99.90;;;;;;5021751;28;20045;-82
2023/05/14 00:10:49;;;;;;;6.35;3.33;;;11.70;99.90;;;;;;5022155;28;20499;-87
2023/05/14 00:13:15;;;;;;;8.10;3.83;;;11.60;99.90;;;;;;5021415;28;20406;-89
2023/05/14 00:15:40;;;;;;;7.30;3.47;;;11.60;99.90;;;;;;5004722;28;20042;-83
2023/05/14 00:18:06;;;;;;;4.15;2.97;;;11.60;99.90;;;;;;5021461;28;20454;-86
2023/05/14 00:20:31;;;;;;;6.47;3.45;;;11.60;99.90;;;;;;5020896;28;20155;-88
2023/05/14 00:22:57;;;;;;;7.47;3.53;;;11.60;99.90;;;;;;5021775;28;20046;-79
2023/05/14 00:25:23;;;;;;;7.15;3.42;;;11.60;99.90;;;;;;5005302;28;20087;-88
2023/05/14 00:27:48;;;;;;;5.50;4.03;;;11.50;99.90;;;;;;5004946;28;20136;-84
2023/05/14 00:30:14;;;;;;;5.25;2.90;;;11.50;99.90;;;;;;5004701;28;20072;-85
2023/05/14 00:32:39;;;;;;;8.32;3.08;;;11.60;99.90;;;;;;5022604;28;20038;-86
2023/05/14 00:35:05;;;;;;;5.75;3.35;;;11.50;99.90;;;;;;5020484;28;20084;-89
2023/05/14 00:37:31;;;;;;;7.85;3.42;;;11.50;99.90;;;;;;5020992;28;20042;-84
2023/05/14 00:39:57;;;;;;;4.95;2.42;;;11.50;99.90;;;;;;5022844;28;20057;-79
2023/05/14 00:42:23;;;;;;;7.70;3.60;;;11.50;99.90;;;;;;5005048;28;20073;-88
2023/05/14 00:44:48;;;;;;;7.00;4.10;;;11.50;99.90;;;;;;5021416;28;20083;-89
2023/05/14 00:47:14;;;;;;;9.27;3.47;;;11.50;99.90;;;;;;5023950;28;20729;-81
2023/05/14 00:49:40;;;;;;;7.25;3.50;;;11.50;99.90;;;;;;5024970;28;20049;-84
2023/05/14 00:52:06;;;;;;;9.75;3.40;;;11.50;99.90;;;;;;5024816;28;20459;-78
2023/05/14 00:54:32;;;;;;;7.88;4.10;;;11.50;99.90;;;;;;5024326;28;20037;-88
2023/05/14 00:56:58;;;;;;;7.07;3.15;;;11.50;99.90;;;;;;5024755;28;20400;-86
2023/05/14 00:59:24;;;;;;;4.93;2.47;;;11.50;99.90;;;;;;5025012;28;20041;-84
2023/05/14 01:01:50;;;;;;;7.07;3.20;;;11.50;99.90;;;;;;5025501;28;20037;-85
2023/05/14 01:04:16;;;;;;;5.30;2.85;;;11.40;99.90;;;;;;5008227;28;20277;-88
2023/05/14 01:07:07;;;;;;;7.00;3.50;;;11.40;99.90;;;;;;5024722;28;20042;-88
2023/05/14 01:10:10;;;;;;;6.50;2.70;;;11.40;99.90;;;;;;5025954;28;20058;-88
2023/05/14 01:12:42;;;;;;;13.73;3.58;;;11.40;99.90;;;;;;5020969;28;20076;-82
2023/05/14 01:15:16;;;;;;;5.55;2.22;;;11.40;99.90;;;;;;4988376;28;20128;-89
2023/05/14 01:17:47;;;;;;;5.18;2.67;;;11.30;99.90;;;;;;5004146;28;20049;-83
2023/05/14 01:20:13;;;;;;;4.35;2.45;;;11.30;99.90;;;;;;5006777;28;20057;-88
2023/05/14 01:22:38;;;;;;;6.80;3.72;;;11.30;99.90;;;;;;5025530;28;20434;-83
2023/05/14 01:25:06;;;;;;;11.70;3.45;;;11.30;99.90;;;;;;5023664;28;20128;-79
2023/05/14 01:27:41;;;;;;;6.05;3.85;;;11.30;99.90;;;;;;5023956;28;20045;-89
2023/05/14 01:30:13;;;;;;;8.27;3.50;;;11.30;99.90;;;;;;5025200;28;20137;-82
2023/05/14 01:32:40;;;;;;;9.13;3.67;;;11.30;99.90;;;;;;5025138;28;20048;-85
2023/05/14 01:35:08;;;;;;;8.48;3.80;;;11.20;99.90;;;;;;5024477;28;20068;-85
2023/05/14 01:37:34;;;;;;;5.63;3.20;;;11.20;99.90;;;;;;5023559;28;20053;-88
2023/05/14 01:40:01;;;;;;;8.40;3.30;;;11.30;99.90;;;;;;5025351;28;20052;-78
2023/05/14 01:42:28;;;;;;;9.50;3.88;;;11.20;99.90;;;;;;5023324;28;20080;-83
2023/05/14 01:44:54;;;;;;;6.22;3.30;;;11.20;99.90;;;;;;5007839;28;20041;-86
2023/05/14 01:47:20;;;;;;;11.32;4.32;;;11.20;99.90;;;;;;5023764;28;20058;-84
2023/05/14 01:49:45;;;;;;;6.93;3.00;;;11.20;99.90;;;;;;5022815;28;20045;-87
2023/05/14 01:52:11;;;;;;;9.23;3.58;;;11.20;99.90;;;;;;5023739;28;20120;-82
2023/05/14 01:54:36;;;;;;;6.18;4.05;;;11.30;99.90;;;;;;5023661;28;20056;-81
2023/05/14 01:57:02;;;;;;;8.02;3.40;;;11.30;99.90;;;;;;5023273;28;20049;-89
2023/05/14 01:59:28;;;;;;;9.20;3.10;;;11.30;99.90;;;;;;5024656;28;20520;-88
2023/05/14 02:01:54;;;;;;;7.10;3.92;;;11.20;99.90;;;;;;5025226;28;20064;-83
2023/05/14 02:04:20;;;;;;;7.32;3.60;;;11.20;99.90;;;;;;5022379;28;20049;-83
2023/05/14 02:06:45;;;;;;;7.40;3.72;;;11.20;99.90;;;;;;5023188;28;20444;-81
2023/05/14 02:09:11;;;;;;;12.40;3.75;;;11.20;99.90;;;;;;5007168;28;20065;-88
2023/05/14 02:11:37;;;;;;;7.93;4.20;;;11.20;99.90;;;;;;5023864;28;20120;-85
2023/05/14 02:14:02;;;;;;;4.45;3.30;;;11.20;99.90;;;;;;5024711;28;20069;-82
2023/05/14 02:16:28;;;;;;;6.47;4.00;;;11.10;99.90;;;;;;5023067;28;20056;-87
2023/05/14 02:18:53;;;;;;;10.75;3.85;;;11.20;99.90;;;;;;5025341;28;20041;-89
2023/05/14 02:21:19;;;;;;;11.63;4.25;;;11.20;99.90;;;;;;5005632;28;20063;-78
2023/05/14 02:23:45;;;;;;;8.48;3.78;;;11.20;99.90;;;;;;5023168;28;20074;-82
2023/05/14 02:26:11;;;;;;;8.55;4.65;;;11.20;99.90;;;;;;5022975;28;20641;-83
2023/05/14 02:28:36;;;;;;;13.52;4.22;;;11.20;99.90;;;;;;5006277;28;20057;-86
2023/05/14 02:31:02;;;;;;;15.95;5.57;;;11.20;99.90;;;;;;5006796;28;20045;-88
2023/05/14 02:33:28;;;;;;;8.48;3.53;;;11.20;99.90;;;;;;5022621;28;20545;-83
2023/05/14 02:35:53;;;;;;;11.10;4.60;;;11.20;99.90;;;;;;5023476;28;20507;-81
2023/05/14 02:38:19;;;;;;;9.63;4.40;;;11.20;99.90;;;;;;5024369;28;20045;-89
2023/05/14 02:40:45;;;;;;;12.65;4.75;;;11.20;99.90;;;;;;5022849;28;20412;-88
2023/05/14 02:43:10;;;;;;;8.20;4.25;;;11.20;99.90;;;;;;5023995;28;20052;-84
2023/05/14 02:45:36;;;;;;;9.63;4.38;;;11.20;99.90;;;;;;5022099;28;20088;-82
2023/05/14 02:48:01;;;;;;;7.22;3.78;;;11.20;99.90;;;;;;5023054;28;20115;-87
2023/05/14 02:50:27;;;;;;;9.82;4.68;;;11.10;99.90;;;;;;5021691;28;20049;-87
2023/05/14 02:52:53;;;;;;;8.75;5.68;;;11.20;99.90;;;;;;5023271;28;20049;-87
2023/05/14 02:55:18;;;;;;;14.05;5.28;;;11.20;99.90;;;;;;5022720;28;20042;-83
2023/05/14 02:57:44;;;;;;;10.60;4.80;;;11.10;99.90;;;;;;5023743;28;20045;-82
2023/05/14 03:00:10;;;;;;;11.30;4.35;;;11.20;99.90;;;;;;5023720;28;20045;-88
2023/05/14 03:02:36;;;;;;;7.30;3.70;;;11.20;99.90;;;;;;5022562;28;20053;-87
2023/05/14 03:05:02;;;;;;;12.32;4.82;;;11.10;99.90;;;;;;5022288;28;20484;-84
2023/05/14 03:07:27;;;;;;;10.27;5.20;;;11.20;99.90;;;;;;5023012;28;20049;-82
2023/05/14 03:09:53;;;;;;;9.73;5.32;;;11.20;99.90;;;;;;5023312;28;20139;-85
2023/05/14 03:12:19;;;;;;;8.73;3.85;;;11.10;99.90;;;;;;5023602;28;20041;-87
2023/05/14 03:14:45;;;;;;;9.82;4.53;;;11.20;99.90;;;;;;5021979;28;20099;-83
2023/05/14 03:17:11;;;;;;;6.93;3.80;;;11.20;99.90;;;;;;5022997;28;20369;-81
2023/05/14 03:19:36;;;;;;;8.63;4.00;;;11.20;99.90;;;;;;5021290;28;20120;-88
2023/05/14 03:22:02;;;;;;;9.60;4.03;;;11.10;99.90;;;;;;5023718;28;20085;-86
2023/05/14 03:24:28;;;;;;;7.25;3.90;;;11.10;99.90;;;;;;5023226;28;20144;-85
2023/05/14 03:26:53;;;;;;;5.05;4.25;;;11.10;99.90;;;;;;5022084;28;20103;-85
2023/05/14 03:29:19;;;;;;;9.98;5.60;;;11.10;99.90;;;;;;5022014;28;20041;-84
2023/05/14 03:31:44;;;;;;;9.18;4.68;;;11.10;99.90;;;;;;5021717;28;20041;-89
2023/05/14 03:34:10;;;;;;;8.52;3.92;;;11.10;99.90;;;;;;5004634;28;20160;-88
2023/05/14 03:36:37;;;;;;;7.50;3.90;;;11.10;99.90;;;;;;5023009;28;20064;-82
2023/05/14 03:39:05;;;;;;;6.88;3.85;;;11.20;99.90;;;;;;5023524;28;20041;-83
2023/05/14 03:41:31;;;;;;;6.82;3.10;;;11.10;99.90;;;;;;5022786;28;20041;-87
2023/05/14 03:43:57;;;;;;;6.05;3.80;;;11.20;99.90;;;;;;5022985;28;20116;-83
2023/05/14 03:46:22;;;;;;;7.20;4.10;;;11.20;99.90;;;;;;5022071;28;20091;-84
2023/05/14 03:48:48;;;;;;;5.80;3.50;;;11.20;99.90;;;;;;5022465;28;20046;-87
2023/05/14 03:51:13;;;;;;;8.70;3.60;;;11.20;99.90;;;;;;5021023;28;20583;-88
2023/05/14 03:53:39;;;;;;;10.32;4.57;;;11.20;99.90;;;;;;5021859;28;20480;-89
2023/05/14 03:56:05;;;;;;;8.07;3.42;;;11.20;99.90;;;;;;5021757;28;20792;-83
2023/05/14 03:58:30;;;;;;;7.57;3.70;;;11.30;99.90;;;;;;5021141;28;20049;-84
2023/05/14 04:00:56;;;;;;;10.18;4.35;;;11.20;99.90;;;;;;5021737;28;20107;-85
2023/05/14 04:03:21;;;;;;;6.18;3.58;;;11.30;99.90;;;;;;5023082;28;20045;-87
2023/05/14 04:05:47;;;;;;;11.27;4.28;;;11.30;99.90;;;;;;5020323;28;20053;-82
2023/05/14 04:08:12;;;;;;;9.18;4.18;;;11.20;99.90;;;;;;5021487;28;20695;-81
2023/05/14 04:10:38;;;;;;;9.75;3.55;;;11.20;99.90;;;;;;5022435;28;20045;-84
2023/05/14 04:13:04;;;;;;;7.72;3.38;;;11.20;99.90;;;;;;5022970;28;20121;-88
2023/05/14 04:15:29;;;;;;;7.47;3.22;;;11.20;99.90;;;;;;5004546;28;20100;-86
2023/05/14 04:17:55;;;;;;;8.43;4.05;;;11.30;99.90;;;;;;5021795;28;20085;-81
2023/05/14 04:20:20;;;;;;;6.72;2.83;;;11.20;99.90;;;;;;5022630;28;20132;-83
2023/05/14 04:22:46;;;;;;;6.85;3.65;;;11.20;99.90;;;;;;5025313;28;20049;-88
2023/05/14 04:25:11;;;;;;;7.75;3.00;;;11.30;99.90;;;;;;5025529;28;20041;-87
2023/05/14 04:27:37;;;;;;;7.88;4.13;;;11.20;99.90;;;;;;5025378;28;20631;-83
2023/05/14 04:30:03;;;;;;;8.40;3.88;;;11.20;99.90;;;;;;5024880;28;20064;-81
2023/05/14 04:32:29;;;;;;;9.15;3.50;;;11.20;99.90;;;;;;5026198;28;20706;-87
2023/05/14 04:34:55;;;;;;;5.70;3.08;;;11.30;99.90;;;;;;5024853;28;20041;-80
2023/05/14 04:37:20;;;;;;;10.25;3.55;;;11.30;99.90;;;;;;5025480;28;20120;-83
2023/05/14 04:39:46;;;;;;;14.52;3.65;;;11.30;99.90;;;;;;5025933;28;20132;-83
2023/05/14 04:42:11;;;;;;;6.72;3.13;;;11.30;99.90;;;;;;5008495;28;20057;-79
2023/05/14 04:44:37;;;;;;;13.13;3.95;;;11.40;99.90;;;;;;5025185;28;20372;-88
2023/05/14 04:47:03;;;;;;;7.63;3.63;;;11.30;99.90;;;;;;5024974;28;20171;-87
2023/05/14 04:49:29;;;;;;;7.85;3.35;;;11.40;99.90;;;;;;5023482;28;20060;-80
2023/05/14 04:51:55;;;;;;;10.80;3.60;;;11.40;99.90;;;;;;5008705;28;20042;-83
2023/05/14 04:54:20;;;;;;;7.28;3.22;;;11.40;99.90;;;;;;5024962;28;20046;-87
2023/05/14 04:56:46;;;;;;;6.95;3.50;;;11.40;99.90;;;;;;5025229;28;20057;-86
2023/05/14 04:59:12;;;;;;;13.00;3.33;;;11.40;99.90;;;;;;5026001;28;20455;-82
2023/05/14 05:01:38;;;;;;;9.00;3.85;;;11.40;99.90;;;;;;5025327;28;20112;-79
2023/05/14 05:04:03;;;;;;;13.32;3.45;;;11.40;99.90;;;;;;5023482;28;20108;-88
2023/05/14 05:06:30;;;;;;;11.20;4.20;;;11.40;99.90;;;;;;5026007;28;20045;-88
2023/05/14 05:08:56;;;;;;;8.00;3.00;;;11.40;99.90;;;;;;5024760;28;20061;-79
2023/05/14 05:11:21;;;;;;;6.78;4.13;;;11.40;99.90;;;;;;5023985;28;20065;-82
2023/05/14 05:13:47;;;;;;;9.50;3.85;;;11.40;99.90;;;;;;5024013;28;20045;-84
2023/05/14 05:16:12;;;;;;;9.38;4.30;;;11.40;99.90;;;;;;5026321;28;20077;-88
2023/05/14 05:18:38;;;;;;;9.85;4.22;;;11.40;99.90;;;;;;5024236;28;20046;-85
2023/05/14 05:21:05;;;;;;;8.02;4.57;;;11.40;99.90;;;;;;5024565;28;20416;-82
2023/05/14 05:23:31;;;;;;;7.38;4.50;;;11.40;99.90;;;;;;5025439;28;20045;-79
2023/05/14 05:25:56;;;;;;;7.65;4.18;;;11.40;99.90;;;;;;5025803;28;20090;-89
2023/05/14 05:28:22;;;;;;;9.10;3.65;;;11.50;99.90;;;;;;5024417;28;20059;-87
2023/05/14 05:30:47;;;;;;;10.73;3.92;;;11.50;99.90;;;;;;5023733;28;20080;-82
2023/05/14 05:33:13;;;;;;;7.55;3.60;;;11.50;99.90;;;;;;5023533;28;20127;-84
2023/05/14 05:35:39;;;;;;;11.35;3.60;;;11.60;99.90;;;;;;5022597;28;20084;-86
2023/05/14 05:38:04;;;;;;;8.23;4.43;;;11.60;99.90;;;;;;5025505;28;20037;-78
2023/05/14 05:40:30;;;;;;;6.05;3.45;;;11.70;99.90;;;;;;5023623;28;20084;-85
2023/05/14 05:42:55;;;;;;;10.75;3.60;;;11.70;99.90;;;;;;5022856;28;20427;-79
2023/05/14 05:45:21;;;;;;;9.55;3.78;;;11.80;99.90;;;;;;5025568;28;20611;-88
2023/05/14 05:47:46;;;;;;;7.78;3.42;;;11.90;99.90;;;;;;5023738;28;20048;-87
2023/05/14 05:50:12;;;;;;;9.95;3.45;;;11.90;99.90;;;;;;5013801;28;20551;-86
2023/05/14 05:52:38;;;;;;;9.20;3.47;;;12.00;99.90;;;;;;5024668;28;20451;-83
2023/05/14 05:55:04;;;;;;;6.03;3.20;;;12.00;99.90;;;;;;5023880;28;20037;-88
2023/05/14 05:57:30;;;;;;;7.45;4.07;;;12.10;99.90;;;;;;5024837;28;20098;-88
2023/05/14 05:59:55;;;;;;;7.45;3.45;;;12.10;99.90;;;;;;5024928;28;20524;-80
2023/05/14 06:02:21;;;;;;;9.00;4.18;;;12.10;99.90;;;;;;5024069;28;20499;-85
2023/05/14 06:04:47;;;;;;;6.90;3.70;;;12.20;99.90;;;;;;5022107;28;20054;-86
2023/05/14 06:07:13;;;;;;;7.53;2.85;;;12.20;99.90;;;;;;5022248;28;20080;-91
2023/05/14 06:09:38;;;;;;;8.52;3.97;;;12.20;99.90;;;;;;5023094;28;20038;-91
2023/05/14 06:12:04;;;;;;;8.38;3.83;;;12.30;99.90;;;;;;5023979;28;20042;-81
2023/05/14 06:14:30;;;;;;;6.40;3.65;;;12.30;99.90;;;;;;5022945;28;20045;-85
2023/05/14 06:16:56;;;;;;;7.47;4.28;;;12.30;99.90;;;;;;5023250;28;20044;-84
2023/05/14 06:19:22;;;;;;;15.80;3.58;;;12.40;99.90;;;;;;5021918;28;20129;-89
2023/05/14 06:21:47;;;;;;;9.00;3.58;;;12.40;99.90;;;;;;5025022;28;20041;-89
2023/05/14 06:24:13;;;;;;;6.53;3.08;;;12.40;99.90;;;;;;5016859;28;20538;-84
2023/05/14 06:26:38;;;;;;;8.07;2.78;;;12.50;99.90;;;;;;5019587;28;20626;-85
2023/05/14 06:29:04;;;;;;;5.00;2.92;;;12.40;99.90;;;;;;5007190;28;20041;-90
2023/05/14 06:31:30;;;;;;;5.68;2.72;;;12.50;99.90;;;;;;5023442;28;20454;-91
2023/05/14 06:33:55;;;;;;;4.65;3.10;;;12.60;99.90;;;;;;5006398;28;20052;-80
2023/05/14 06:36:21;;;;;;;8.43;3.22;;;12.60;99.90;;;;;;5024544;28;20041;-85
2023/05/14 06:38:46;;;;;;;7.93;3.35;;;12.60;99.90;;;;;;5018369;28;20081;-92
2023/05/14 06:41:12;;;;;;;5.88;3.75;;;12.70;99.90;;;;;;5024438;28;20049;-87
2023/05/14 06:43:37;;;;;;;8.55;2.95;;;12.70;99.90;;;;;;5023485;28;20056;-90
2023/05/14 06:46:03;;;;;;;7.28;2.58;;;12.70;99.90;;;;;;5022946;28;20603;-84
2023/05/14 06:48:29;;;;;;;4.28;2.42;;;12.70;99.90;;;;;;5021636;28;20041;-84
2023/05/14 06:50:55;;;;;;;11.38;3.55;;;12.80;99.90;;;;;;5024140;28;20071;-90
2023/05/14 06:53:21;;;;;;;8.75;2.90;;;12.80;99.90;;;;;;5006773;28;20480;-82
2023/05/14 06:55:47;;;;;;;12.32;3.45;;;12.90;99.90;;;;;;5017984;28;20056;-85
2023/05/14 06:58:13;;;;;;;4.63;2.97;;;12.90;99.90;;;;;;5022449;28;20525;-80
2023/05/14 07:00:39;;;;;;;9.52;3.42;;;13.00;99.90;;;;;;5020262;28;20042;-89
2023/05/14 07:03:04;;;;;;;5.68;2.17;;;12.90;99.90;;;;;;5020638;28;20048;-89
2023/05/14 07:05:30;;;;;;;7.20;3.10;;;13.00;99.90;;;;;;5020366;28;20093;-82
2023/05/14 07:07:56;;;;;;;6.32;2.85;;;13.10;99.90;;;;;;5005578;28;20029;-81
2023/05/14 07:10:22;;;;;;;12.93;3.58;;;13.00;99.90;;;;;;5020496;28;20508;-93
2023/05/14 07:12:48;;;;;;;5.25;2.67;;;13.10;99.90;;;;;;5010735;28;20111;-87
2023/05/14 07:15:13;;;;;;;4.40;2.40;;;13.10;99.90;;;;;;5018350;28;20128;-83
2023/05/14 07:17:39;;;;;;;7.05;3.17;;;13.20;99.90;;;;;;5004489;28;20053;-83
2023/05/14 07:20:06;;;;;;;4.25;2.67;;;13.20;99.90;;;;;;5036697;28;20037;-82
2023/05/14 07:22:31;;;;;;;5.00;2.50;;;13.20;99.90;;;;;;5026750;28;20531;-83
2023/05/14 07:24:57;;;;;;;6.15;2.60;;;13.30;99.90;;;;;;5023455;28;20129;-84
2023/05/14 07:27:23;;;;;;;5.22;3.00;;;13.40;99.90;;;;;;5024089;28;20425;-82
2023/05/14 07:29:49;;;;;;;4.22;2.83;;;13.40;99.90;;;;;;5037415;28;20068;-85
2023/05/14 07:32:15;;;;;;;7.85;3.30;;;13.40;99.90;;;;;;5024088;28;20087;-86
2023/05/14 07:34:41;;;;;;;7.55;3.03;;;13.50;99.90;;;;;;5013510;28;20049;-87
2023/05/14 07:37:07;;;;;;;5.00;2.80;;;13.50;99.90;;;;;;5026738;28;20472;-84
2023/05/14 07:39:32;;;;;;;5.43;3.85;;;13.60;99.90;;;;;;5030368;28;20099;-84
2023/05/14 07:41:59;;;;;;;9.02;3.70;;;13.60;99.90;;;;;;5018113;28;20492;-87
2023/05/14 07:44:25;;;;;;;7.78;2.90;;;13.60;99.90;;;;;;5004077;28;20129;-86
2023/05/14 07:46:50;;;;;;;5.18;2.92;;;13.60;99.90;;;;;;5009365;28;20137;-86
2023/05/14 07:49:16;;;;;;;4.68;2.75;;;13.60;99.90;;;;;;5017251;28;20547;-86
2023/05/14 07:51:42;;;;;;;7.85;3.05;;;13.70;99.90;;;;;;5023103;28;20052;-87
2023/05/14 07:54:07;;;;;;;5.07;3.05;;;13.80;99.90;;;;;;5023679;28;20172;-89
2023/05/14 07:56:33;;;;;;;4.82;3.75;;;13.80;99.90;;;;;;5020934;28;20041;-87
2023/05/14 07:58:58;;;;;;;9.55;3.53;;;13.80;99.90;;;;;;5022041;28;20048;-82
2023/05/14 08:01:25;;;;;;;4.80;3.50;;;13.80;99.90;;;;;;5022296;28;20511;-89
2023/05/14 08:03:50;;;;;;;10.30;4.57;;;13.90;99.90;;;;;;5021068;28;20049;-89
2023/05/14 08:06:16;;;;;;;7.10;3.80;;;13.90;99.90;;;;;;5004512;28;20117;-87
2023/05/14 08:08:42;;;;;;;9.45;3.70;;;14.00;99.90;;;;;;5022444;28;20364;-84
2023/05/14 08:11:07;;;;;;;6.53;2.70;;;14.00;99.90;;;;;;5022549;28;20045;-87
2023/05/14 08:13:33;;;;;;;6.32;3.08;;;14.00;99.90;;;;;;5004924;28;20042;-81
2023/05/14 08:15:59;;;;;;;6.35;3.10;;;14.00;99.90;;;;;;5022711;28;20034;-89
2023/05/14 08:18:24;;;;;;;6.07;3.17;;;13.90;99.90;;;;;;5003989;28;20037;-85
2023/05/14 08:20:50;;;;;;;4.72;3.70;;;14.00;99.90;;;;;;5023007;28;20047;-85
2023/05/14 08:23:16;;;;;;;5.18;3.05;;;14.00;99.90;;;;;;5024050;28;20437;-88
2023/05/14 08:25:42;;;;;;;10.82;2.80;;;14.00;99.90;;;;;;5022627;28;20100;-90
2023/05/14 08:28:07;;;;;;;6.80;2.83;;;14.00;99.90;;;;;;5021449;28;20435;-87
2023/05/14 08:30:33;;;;;;;5.47;2.95;;;14.10;99.90;;;;;;5019053;28;20045;-83
2023/05/14 08:32:59;;;;;;;9.77;3.42;;;14.10;99.90;;;;;;5019013;28;20041;-86
2023/05/14 08:35:24;;;;;;;5.60;2.95;;;14.20;99.90;;;;;;5019572;28;20041;-87
2023/05/14 08:37:51;;;;;;;5.57;3.10;;;14.30;99.90;;;;;;5011630;28;20037;-88
2023/05/14 08:40:17;;;;;;;5.70;3.72;;;14.30;99.90;;;;;;5021315;28;20056;-84
2023/05/14 08:42:43;;;;;;;4.25;3.42;;;14.30;99.90;;;;;;5020638;28;20057;-86
2023/05/14 08:45:16;;;;;;;7.57;4.38;;;14.40;99.90;;;;;;5021843;28;20080;-89
2023/05/14 08:47:47;;;;;;;5.97;4.00;;;14.40;99.90;;;;;;5020716;28;20218;-85
2023/05/14 08:50:13;;;;;;;5.20;3.92;;;14.50;99.90;;;;;;5006513;28;20069;-88
2023/05/14 08:52:38;;;;;;;13.32;4.18;;;14.50;99.90;;;;;;5015932;28;20527;-82
2023/05/14 08:55:05;;;;;;;6.05;3.05;;;14.60;99.90;;;;;;5022329;28;20514;-82
2023/05/14 08:57:32;;;;;;;5.55;3.20;;;14.60;99.90;;;;;;5020351;28;20091;-84
2023/05/14 08:59:58;;;;;;;10.85;3.92;;;14.60;99.90;;;;;;5006111;28;20053;-88
2023/05/14 09:02:30;;;;;;;6.15;3.72;;;14.70;99.90;;;;;;5002902;28;20450;-83
2023/05/14 09:04:58;;;;;;;8.45;3.65;;;14.70;99.90;;;;;;5029387;28;20058;-84
2023/05/14 09:07:24;;;;;;;5.03;2.72;;;14.70;99.90;;;;;;5024015;28;20045;-85
2023/05/14 09:09:51;;;;;;;9.55;3.03;;;14.70;99.90;;;;;;5012368;28;20124;-84
2023/05/14 09:12:16;;;;;;;9.95;3.60;;;14.70;99.90;;;;;;5022559;28;20136;-84
2023/05/14 09:14:43;;;;;;;6.45;2.90;;;14.70;99.90;;;;;;5025690;28;20232;-88
2023/05/14 09:17:11;;;;;;;5.40;2.95;;;14.70;99.90;;;;;;5024399;28;20053;-83
2023/05/14 09:19:39;;;;;;;8.25;3.15;;;14.80;99.90;;;;;;5024723;28;20056;-85
2023/05/14 09:22:10;;;;;;;7.75;2.80;;;14.70;99.90;;;;;;5024122;28;20117;-87
2023/05/14 09:24:37;;;;;;;6.20;3.60;;;14.80;99.90;;;;;;5021217;28;20042;-84
2023/05/14 09:27:04;;;;;;;6.63;3.75;;;14.80;99.90;;;;;;5017063;28;20096;-88
2023/05/14 09:29:30;;;;;;;7.22;3.35;;;14.90;99.90;;;;;;5025344;28;20045;-85
2023/05/14 09:31:57;;;;;;;5.53;2.70;;;14.90;99.90;;;;;;5025435;28;20128;-85
2023/05/14 09:34:33;;;;;;;6.45;2.88;;;15.00;99.90;;;;;;5032284;28;20080;-88
2023/05/14 09:37:06;;;;;;;10.93;4.10;;;15.00;99.90;;;;;;5043648;28;20778;-83
2023/05/14 09:39:35;;;;;;;9.70;2.55;;;15.10;99.90;;;;;;5043744;28;20120;-79
2023/05/14 09:42:01;;;;;;;8.05;2.97;;;15.10;99.90;;;;;;5024423;28;20057;-82
2023/05/14 09:44:26;;;;;;;4.57;2.83;;;15.20;99.90;;;;;;4988293;28;20052;-89
2023/05/14 09:46:53;;;;;;;10.02;3.13;;;15.10;99.90;;;;;;5017599;28;20050;-84
2023/05/14 09:49:18;;;;;;;6.32;3.25;;;15.20;99.90;;;;;;5030929;28;20993;-83
2023/05/14 09:51:44;;;;;;;8.30;2.92;;;15.20;99.90;;;;;;5025363;28;20073;-80
2023/05/14 09:54:10;;;;;;;4.80;2.63;;;15.20;99.90;;;;;;5023222;28;20120;-87
2023/05/14 09:56:36;;;;;;;3.47;2.88;;;15.30;99.90;;;;;;5006259;28;20041;-88
2023/05/14 09:59:02;;;;;;;6.80;3.17;;;15.30;99.90;;;;;;5023777;28;20602;-84
2023/05/14 10:01:29;;;;;;;3.80;2.90;;;15.30;99.90;;;;;;5005904;28;20069;-83
2023/05/14 10:03:55;;;;;;;5.32;2.53;;;15.30;99.90;;;;;;5023690;28;20053;-89
2023/05/14 10:06:26;;;;;;;5.88;2.78;;;15.30;99.90;;;;;;5025435;28;20454;-90
2023/05/14 10:08:57;;;;;;;5.47;3.15;;;15.40;99.90;;;;;;5022993;28;20141;-86
2023/05/14 10:11:27;;;;;;;6.45;3.00;;;15.40;99.90;;;;;;4995518;28;20053;-88
2023/05/14 10:14:25;;;;;;;8.43;3.67;;;15.40;99.90;;;;;;5019780;28;20037;-86
2023/05/14 10:16:52;;;;;;;7.78;3.45;;;15.40;99.90;;;;;;5014933;28;20159;-89
2023/05/14 10:19:22;;;;;;;7.10;3.33;;;15.50;99.90;;;;;;5005216;28;20500;-89
2023/05/14 10:21:58;;;;;;;7.85;3.05;;;15.60;99.90;;;;;;5024075;28;20049;-86
2023/05/14 10:24:25;;;;;;;10.02;3.85;;;15.60;99.90;;;;;;5023601;28;20041;-85
2023/05/14 10:26:51;;;;;;;6.70;3.25;;;15.60;99.90;;;;;;5022958;28;20045;-84
2023/05/14 10:29:16;;;;;;;8.68;3.00;;;15.70;99.90;;;;;;5023306;28;20042;-89
2023/05/14 10:31:53;;;;;;;6.43;3.30;;;15.60;99.90;;;;;;5022478;28;20052;-90
2023/05/14 10:34:32;;;;;;;6.38;3.33;;;15.70;99.90;;;;;;5004657;28;20100;-90
2023/05/14 10:36:59;;;;;;;7.30;3.42;;;15.70;99.90;;;;;;5023059;28;20041;-89
2023/05/14 10:40:04;;;;;;;5.50;3.00;;;15.80;99.90;;;;;;5023094;28;20041;-82
2023/05/14 10:42:39;;;;;;;6.30;3.42;;;15.90;99.90;;;;;;5012555;28;20265;-86
2023/05/14 10:45:07;;;;;;;5.53;3.15;;;15.90;99.90;;;;;;5034204;28;20102;-83
2023/05/14 10:47:44;;;;;;;10.45;3.95;;;15.90;99.90;;;;;;5025040;28;20065;-88
2023/05/14 10:50:12;;;;;;;5.95;4.05;;;15.90;99.90;;;;;;5041002;28;20044;-87
2023/05/14 10:52:41;;;;;;;9.65;3.90;;;16.00;99.90;;;;;;5018808;28;20088;-88
2023/05/14 10:55:07;;;;;;;11.10;4.70;;;16.00;99.90;;;;;;5023883;28;20188;-85
2023/05/14 10:57:39;;;;;;;6.43;4.13;;;16.10;99.90;;;;;;5023117;28;20120;-84
2023/05/14 11:00:07;;;;;;;7.40;4.18;;;16.10;99.90;;;;;;5022447;28;20037;-86
2023/05/14 11:02:38;;;;;;;10.48;3.90;;;16.10;99.90;;;;;;5021977;28;20655;-85
2023/05/14 11:05:07;;;;;;;7.80;3.95;;;16.10;99.90;;;;;;5022608;28;20041;-80
2023/05/14 11:07:35;;;;;;;7.88;3.60;;;16.10;99.90;;;;;;5023063;28;20060;-82
2023/05/14 11:10:09;;;;;;;8.00;4.00;;;16.10;99.90;;;;;;5018006;28;20053;-89
2023/05/14 11:12:37;;;;;;;12.50;4.07;;;16.10;99.90;;;;;;5021215;28;20129;-84
2023/05/14 11:15:06;;;;;;;5.93;3.25;;;16.20;99.90;;;;;;5026315;28;20404;-88
2023/05/14 11:17:34;;;;;;;10.00;4.30;;;16.20;99.90;;;;;;5022263;28;20049;-83
2023/05/14 11:20:00;;;;;;;7.63;3.75;;;16.30;99.90;;;;;;5020563;28;20499;-88
2023/05/14 11:22:25;;;;;;;8.57;3.92;;;16.30;99.90;;;;;;5034238;28;20099;-81
2023/05/14 11:24:51;;;;;;;6.45;3.92;;;16.30;99.90;;;;;;5024240;28;20526;-81
2023/05/14 11:27:17;;;;;;;8.30;3.60;;;16.40;99.90;;;;;;5033171;28;20915;-82
2023/05/14 11:29:47;;;;;;;6.45;4.47;;;16.40;99.90;;;;;;5025653;28;20037;-85
2023/05/14 11:32:14;;;;;;;5.57;4.38;;;16.40;99.90;;;;;;5027531;28;20048;-88
2023/05/14 11:34:41;;;;;;;6.00;3.65;;;16.40;99.90;;;;;;5030712;28;20135;-84
2023/05/14 11:37:08;;;;;;;5.70;3.28;;;16.40;99.90;;;;;;5039118;28;20458;-88
2023/05/14 11:39:36;;;;;;;10.75;4.15;;;16.40;99.90;;;;;;5022421;28;20038;-84
2023/05/14 11:42:13;;;;;;;6.45;3.92;;;16.40;99.90;;;;;;5020932;28;20058;-80
2023/05/14 11:44:39;;;;;;;8.98;4.00;;;16.50;99.90;;;;;;5021947;28;20099;-82
2023/05/14 11:47:06;;;;;;;10.48;4.72;;;16.50;99.90;;;;;;5021869;28;20052;-84
2023/05/14 11:49:34;;;;;;;17.83;4.32;;;16.50;99.90;;;;;;5021009;28;20048;-84
2023/05/14 11:52:04;;;;;;;6.13;4.18;;;16.50;99.90;;;;;;5022272;28;20041;-84
2023/05/14 11:54:32;;;;;;;7.75;4.35;;;16.60;99.90;;;;;;5021254;28;20049;-89
2023/05/14 11:57:00;;;;;;;7.35;4.13;;;16.60;99.90;;;;;;5025052;28;20046;-86
2023/05/14 11:59:28;;;;;;;8.05;3.78;;;16.60;99.90;;;;;;5038741;28;20044;-86
2023/05/14 12:01:57;;;;;;;10.00;3.90;;;16.70;99.90;;;;;;5041207;28;20580;-90
2023/05/14 12:04:23;;;;;;;7.72;4.82;;;16.80;99.90;;;;;;5041130;28;20068;-91
2023/05/14 12:06:49;;;;;;;5.50;3.75;;;16.80;99.90;;;;;;5040607;28;20442;-86
2023/05/14 12:09:16;;;;;;;5.38;3.63;;;16.90;99.90;;;;;;5004855;28;20045;-88
2023/05/14 12:11:45;;;;;;;9.27;5.93;;;16.90;99.90;;;;;;5006157;28;20116;-90
2023/05/14 12:14:22;;;;;;;8.00;5.18;;;16.90;99.90;;;;;;4988761;28;20136;-81
2023/05/14 12:16:49;;;;;;;8.05;3.80;;;16.90;99.90;;;;;;5020714;28;20033;-80
2023/05/14 12:19:16;;;;;;;8.55;4.00;;;17.00;99.90;;;;;;5019172;28;20052;-78
2023/05/14 12:21:43;;;;;;;8.80;3.72;;;17.00;99.90;;;;;;5021386;28;20059;-80
2023/05/14 12:24:11;;;;;;;9.32;4.55;;;17.00;99.90;;;;;;5019308;28;20468;-79
2023/05/14 12:26:37;;;;;;;6.25;3.55;;;17.10;99.90;;;;;;5020387;28;20055;-77
2023/05/14 12:29:05;;;;;;;7.05;3.80;;;17.20;99.90;;;;;;5020648;28;20038;-80
2023/05/14 12:31:32;;;;;;;8.85;3.50;;;17.20;99.90;;;;;;5019239;28;20041;-80
2023/05/14 12:33:58;;;;;;;7.40;3.88;;;17.20;99.90;;;;;;5019329;28;20045;-77
2023/05/14 12:36:24;;;;;;;9.38;4.75;;;17.30;99.90;;;;;;5021662;28;20100;-81
2023/05/14 12:38:50;;;;;;;8.77;3.97;;;17.30;99.90;;;;;;5019555;28;20033;-81
2023/05/14 12:41:16;;;;;;;9.93;4.25;;;17.30;99.90;;;;;;5022711;28;20107;-80
2023/05/14 12:43:43;;;;;;;8.88;4.93;;;17.30;99.90;;;;;;5024772;28;20049;-76